首页
METAR-TAF:

METAR-TAF

机场 :

阿卜杜勒-阿齐兹国王国际机场

吉达, 沙特阿拉伯

纬度: 21-42N, 经度: 039-11E, 海拔: 15米

当前天气观测

该预报发布于1小时和6分钟前的23:00 UTC
风速5节,风向
温度 24°C
湿度 65%
气压 1018 hPa
能见度10公里或以上
少量云层高于4000英尺

METAR: OEJN 122300Z 36005KT 9999 FEW040 24/17 Q1018 NOSIG

时间: 03:06 (00:06 UTC)

预报

该预报发布于1小时和6分钟前的23:00 UTC
预报有效从13日的 00点(UTC)到 14日的 06点(UTC)
风速8节,风向东北
能見度: 8000
少量云层高于4000英尺
散云层高于10000英尺
成为
从 13日的 06点(UTC)到 13日的 08点(UTC)
风速12节,风向西北

TAF: OEJN 122300Z 1300/1406 04008KT 8000 FEW040 SCT100 BECMG 1306/1308 32012KT

超过4000个机场的气象观测和天气预报(METAR&TAF报告)。

可查询的气象台以黄色和红色小点在地图上表示。

将鼠标移到小点上方,可查看气象台名称。

然后点击查看天气观测和预报。

如需切换地图:点击带黑十字的绿色按钮放大地图;点击带横线的绿色按钮缩小地图;或者点击绿色箭头查看邻近地区的地图。


METAR-TAF: